createdAt,value
2022-08-19T00:01:37.932Z,20.06
2022-08-19T00:04:10.345Z,20.02
2022-08-19T00:06:38.024Z,20.03
2022-08-19T00:09:06.767Z,20.04
2022-08-19T00:11:33.590Z,20.06
2022-08-19T00:14:00.201Z,20.05
2022-08-19T00:16:27.102Z,20.01
2022-08-19T00:18:54.923Z,19.99
2022-08-19T00:21:21.829Z,19.96
2022-08-19T00:23:48.631Z,19.94
2022-08-19T00:26:15.275Z,19.94
2022-08-19T00:28:42.163Z,19.94
2022-08-19T00:31:09.429Z,19.91
2022-08-19T00:33:36.703Z,19.91
2022-08-19T00:36:07.304Z,19.85
2022-08-19T00:38:39.285Z,19.87
2022-08-19T00:41:07.026Z,19.89
2022-08-19T00:43:33.866Z,19.88
2022-08-19T00:46:00.607Z,19.86
2022-08-19T00:48:27.507Z,19.85
2022-08-19T00:50:55.273Z,19.86
2022-08-19T00:53:24.345Z,19.91
2022-08-19T00:55:54.491Z,19.93
2022-08-19T00:58:24.302Z,19.94
2022-08-19T01:00:51.328Z,19.95
2022-08-19T01:03:20.668Z,19.98
2022-08-19T01:05:48.421Z,19.93
2022-08-19T01:08:16.820Z,19.99
2022-08-19T01:10:47.282Z,20.02
2022-08-19T01:13:16.122Z,20.01
2022-08-19T01:15:56.535Z,20.00
2022-08-19T01:18:23.980Z,20.00
2022-08-19T01:20:52.326Z,19.98
2022-08-19T01:23:19.504Z,19.94
2022-08-19T01:25:50.869Z,19.92
2022-08-19T01:28:34.068Z,19.94
2022-08-19T01:31:08.155Z,19.91
2022-08-19T01:33:35.327Z,19.90
2022-08-19T01:36:13.998Z,19.84
2022-08-19T01:38:44.462Z,19.80
2022-08-19T01:41:14.406Z,19.78
2022-08-19T01:44:03.155Z,19.77
2022-08-19T01:46:28.282Z,19.73
2022-08-19T01:48:55.072Z,19.71
2022-08-19T01:51:21.817Z,19.70
2022-08-19T01:53:50.084Z,19.70
2022-08-19T01:56:17.140Z,19.70
2022-08-19T01:58:48.762Z,19.71
2022-08-19T02:01:15.439Z,19.74
2022-08-19T02:03:42.492Z,19.75
2022-08-19T02:06:09.500Z,19.78
2022-08-19T02:08:39.053Z,19.78
2022-08-19T02:11:07.179Z,19.76
2022-08-19T02:13:35.242Z,19.77
2022-08-19T02:16:04.292Z,19.77
2022-08-19T02:18:31.441Z,19.74
2022-08-19T02:20:58.160Z,19.71
2022-08-19T02:23:24.908Z,19.71
2022-08-19T02:25:52.527Z,19.74
2022-08-19T02:28:19.277Z,19.73
2022-08-19T02:30:47.219Z,19.72
2022-08-19T02:33:13.881Z,19.68
2022-08-19T02:35:45.142Z,19.74
2022-08-19T02:38:27.005Z,19.69
2022-08-19T02:40:59.798Z,19.66
2022-08-19T02:43:28.617Z,19.72
2022-08-19T02:45:55.542Z,19.70
2022-08-19T02:48:24.302Z,19.65
2022-08-19T02:50:56.308Z,19.63
2022-08-19T02:53:25.086Z,19.61
2022-08-19T02:55:52.250Z,19.62
2022-08-19T02:58:19.183Z,19.56
2022-08-19T03:00:50.606Z,19.57
2022-08-19T03:03:20.696Z,19.57
2022-08-19T03:05:56.057Z,19.45
2022-08-19T03:08:25.335Z,19.43
2022-08-19T03:10:53.835Z,19.38
2022-08-19T03:13:20.759Z,19.40
2022-08-19T03:15:48.567Z,19.36
2022-08-19T03:18:15.927Z,19.27
2022-08-19T03:20:55.420Z,19.25
2022-08-19T03:23:22.662Z,19.23
2022-08-19T03:26:03.034Z,19.20
2022-08-19T03:28:37.800Z,19.18
2022-08-19T03:31:42.147Z,19.16
2022-08-19T03:33:55.400Z,19.17
2022-08-19T03:36:26.780Z,19.27
2022-08-19T03:38:59.876Z,19.27
2022-08-19T03:41:34.377Z,19.25
2022-08-19T03:44:17.994Z,19.19
2022-08-19T03:46:47.054Z,19.13
2022-08-19T03:49:14.187Z,19.09
2022-08-19T03:51:42.165Z,19.06
2022-08-19T03:54:10.827Z,19.05
2022-08-19T03:56:39.435Z,19.06
2022-08-19T03:59:08.723Z,19.04
2022-08-19T04:01:35.950Z,19.03
2022-08-19T04:04:03.477Z,19.09
2022-08-19T04:06:36.042Z,19.04
2022-08-19T04:09:08.496Z,19.01
2022-08-19T04:11:44.631Z,19.05
2022-08-19T04:14:18.283Z,19.09
2022-08-19T04:16:45.578Z,19.02
2022-08-19T04:19:13.271Z,19.04
2022-08-19T04:21:40.337Z,19.02
2022-08-19T04:24:07.303Z,19.00
2022-08-19T04:26:36.936Z,18.99
2022-08-19T04:29:12.684Z,19.00
2022-08-19T04:31:41.057Z,18.98
2022-08-19T04:34:11.939Z,19.01
2022-08-19T04:36:42.300Z,19.03
2022-08-19T04:39:17.004Z,19.03
2022-08-19T04:42:03.249Z,19.06
2022-08-19T04:44:35.586Z,19.03
2022-08-19T04:47:10.917Z,19.07
2022-08-19T04:49:38.383Z,19.06
2022-08-19T04:52:05.014Z,19.06
2022-08-19T04:54:37.541Z,19.11
2022-08-19T04:57:07.820Z,19.12
2022-08-19T04:59:35.603Z,19.20
2022-08-19T05:02:02.340Z,19.25
2022-08-19T05:04:31.963Z,19.35
2022-08-19T05:07:00.773Z,19.43
2022-08-19T05:09:28.332Z,19.45
2022-08-19T05:12:08.853Z,19.45
2022-08-19T05:14:37.539Z,19.50
2022-08-19T05:17:26.126Z,19.58
2022-08-19T05:20:09.240Z,19.60
2022-08-19T05:22:36.557Z,19.65
2022-08-19T05:25:13.020Z,19.66
2022-08-19T05:27:41.087Z,19.65
2022-08-19T05:30:08.336Z,19.64
2022-08-19T05:32:36.165Z,19.62
2022-08-19T05:35:03.072Z,19.67
2022-08-19T05:37:29.875Z,19.72
2022-08-19T05:39:56.683Z,19.81
2022-08-19T05:42:24.242Z,19.87
2022-08-19T05:44:51.958Z,19.83
2022-08-19T05:47:20.867Z,19.79
2022-08-19T05:49:48.173Z,19.79
2022-08-19T05:52:16.953Z,19.79
2022-08-19T05:54:50.961Z,19.84
2022-08-19T05:57:17.958Z,19.85
2022-08-19T05:59:57.610Z,19.85
2022-08-19T06:02:29.198Z,19.85
2022-08-19T06:04:55.838Z,19.92
2022-08-19T06:07:22.568Z,19.95
2022-08-19T06:10:00.468Z,19.91
2022-08-19T06:12:35.173Z,19.88
2022-08-19T06:15:05.899Z,19.89
2022-08-19T06:17:32.769Z,19.98
2022-08-19T06:20:00.140Z,20.02
2022-08-19T06:22:27.881Z,20.09
2022-08-19T06:24:55.285Z,20.15
2022-08-19T06:27:22.253Z,20.25
2022-08-19T06:29:49.045Z,20.24
2022-08-19T06:32:17.339Z,20.38
2022-08-19T06:34:44.000Z,20.47
2022-08-19T06:37:12.469Z,20.58
2022-08-19T06:39:41.621Z,20.74
2022-08-19T06:42:11.161Z,20.98
2022-08-19T06:44:42.781Z,21.14
2022-08-19T06:47:14.937Z,21.28
2022-08-19T06:49:51.080Z,21.39
2022-08-19T06:52:17.773Z,21.49
2022-08-19T06:54:55.353Z,21.55
2022-08-19T06:57:24.390Z,21.68
2022-08-19T06:59:51.253Z,21.89
2022-08-19T07:04:52.865Z,22.42
2022-08-19T07:07:21.846Z,22.53
2022-08-19T07:09:57.761Z,22.61
2022-08-19T07:12:33.944Z,22.76
2022-08-19T07:15:04.548Z,22.73
2022-08-19T07:17:31.320Z,22.60
2022-08-19T07:19:58.114Z,22.51
2022-08-19T07:22:33.647Z,22.52
2022-08-19T07:25:00.721Z,22.60
2022-08-19T07:27:27.385Z,22.50
2022-08-19T07:29:55.730Z,22.51
2022-08-19T07:32:23.279Z,22.46
2022-08-19T07:34:49.935Z,22.51
2022-08-19T07:37:16.985Z,22.60
2022-08-19T07:39:43.689Z,22.63
2022-08-19T07:42:13.252Z,22.65
2022-08-19T07:47:47.785Z,22.74
2022-08-19T07:49:58.590Z,22.67
2022-08-19T07:52:25.162Z,22.72
2022-08-19T07:54:51.898Z,22.70
2022-08-19T07:57:19.982Z,22.65
2022-08-19T07:59:46.682Z,22.55
2022-08-19T08:02:13.288Z,22.35
2022-08-19T08:04:58.575Z,22.27
2022-08-19T08:07:46.314Z,22.19
2022-08-19T08:11:03.818Z,22.12
2022-08-19T08:13:36.291Z,22.07
2022-08-19T08:16:06.234Z,22.02
2022-08-19T08:18:42.478Z,21.96
2022-08-19T08:21:09.720Z,21.89
2022-08-19T08:23:36.866Z,22.00
2022-08-19T08:26:06.504Z,21.98
2022-08-19T08:28:33.135Z,21.74
2022-08-19T08:31:00.182Z,21.64
2022-08-19T08:33:34.185Z,21.68
2022-08-19T08:36:04.297Z,21.53
2022-08-19T08:38:38.365Z,21.46
2022-08-19T08:41:29.220Z,21.38
2022-08-19T08:43:58.092Z,21.38
2022-08-19T08:46:47.833Z,21.40
2022-08-19T08:49:46.614Z,21.56
2022-08-19T08:52:37.209Z,21.49
2022-08-19T08:55:12.302Z,21.59
2022-08-19T08:57:48.200Z,21.62
2022-08-19T09:00:19.315Z,21.81
2022-08-19T09:02:50.412Z,21.80
2022-08-19T09:05:22.612Z,21.87
2022-08-19T09:08:13.804Z,22.04
2022-08-19T09:10:55.571Z,22.13
2022-08-19T09:13:37.550Z,22.12
2022-08-19T09:16:15.050Z,22.19
2022-08-19T09:18:48.162Z,22.29
2022-08-19T09:21:16.253Z,22.34
2022-08-19T09:23:44.652Z,22.39
2022-08-19T09:26:16.842Z,22.45
2022-08-19T09:28:48.896Z,22.60
2022-08-19T09:31:22.707Z,22.76
2022-08-19T09:33:49.493Z,22.94
2022-08-19T09:36:31.066Z,23.01
2022-08-19T09:39:02.074Z,23.15
2022-08-19T09:41:29.758Z,23.14
2022-08-19T09:43:57.771Z,23.25
2022-08-19T09:46:27.193Z,23.52
2022-08-19T09:48:54.616Z,23.79
2022-08-19T09:51:24.026Z,24.01
2022-08-19T09:53:52.090Z,24.36
2022-08-19T09:56:20.738Z,24.57
2022-08-19T09:58:47.543Z,24.90
2022-08-19T10:01:23.961Z,25.36
2022-08-19T10:03:54.210Z,25.87
2022-08-19T10:06:45.574Z,26.17
2022-08-19T10:09:11.766Z,25.32
2022-08-19T10:11:46.905Z,25.14
2022-08-19T10:14:23.244Z,25.47
2022-08-19T10:16:50.372Z,25.37
2022-08-19T10:19:25.408Z,25.41
2022-08-19T10:21:54.227Z,25.73
2022-08-19T10:24:21.661Z,25.27
2022-08-19T10:26:55.957Z,25.47
2022-08-19T10:29:33.011Z,25.37
2022-08-19T10:32:02.648Z,24.99
2022-08-19T10:34:30.817Z,24.97
2022-08-19T10:37:00.902Z,24.71
2022-08-19T10:39:30.886Z,24.48
2022-08-19T10:41:58.547Z,24.29
2022-08-19T10:44:32.001Z,24.32
2022-08-19T10:46:59.958Z,24.50
2022-08-19T10:49:26.665Z,24.73
2022-08-19T10:52:20.727Z,24.76
2022-08-19T10:55:08.253Z,24.85
2022-08-19T10:57:59.351Z,24.80
2022-08-19T11:00:24.237Z,25.11
2022-08-19T11:02:51.399Z,25.43
2022-08-19T11:05:19.143Z,25.76
2022-08-19T11:07:46.455Z,25.92
2022-08-19T11:10:18.304Z,26.17
2022-08-19T11:12:47.530Z,25.70
2022-08-19T11:15:14.170Z,25.67
2022-08-19T11:17:44.798Z,25.73
2022-08-19T11:20:15.904Z,25.63
2022-08-19T11:22:43.160Z,25.70
2022-08-19T11:25:11.377Z,25.59
2022-08-19T11:27:45.597Z,25.48
2022-08-19T11:30:14.044Z,25.58
2022-08-19T11:32:45.910Z,25.68
2022-08-19T11:35:15.336Z,25.61
2022-08-19T11:37:42.027Z,25.78
2022-08-19T11:40:09.432Z,25.66
2022-08-19T11:42:54.807Z,25.82
2022-08-19T11:45:22.082Z,25.96
2022-08-19T11:47:49.153Z,25.88
2022-08-19T11:50:17.249Z,25.88
2022-08-19T11:52:45.965Z,25.85
2022-08-19T11:55:14.147Z,25.76
2022-08-19T11:57:42.121Z,25.95
2022-08-19T12:00:15.278Z,25.97
2022-08-19T12:02:41.978Z,26.01
2022-08-19T12:05:12.198Z,26.33
2022-08-19T12:07:39.533Z,26.29
2022-08-19T12:10:06.666Z,25.98
2022-08-19T12:12:35.405Z,25.90
2022-08-19T12:15:02.237Z,26.27
2022-08-19T12:17:29.648Z,25.95
2022-08-19T12:19:56.409Z,25.58
2022-08-19T12:22:23.627Z,25.41
2022-08-19T12:24:51.855Z,25.38
2022-08-19T12:27:32.340Z,25.29
2022-08-19T12:30:07.569Z,25.45
2022-08-19T12:32:34.616Z,25.53
2022-08-19T12:35:02.155Z,25.75
2022-08-19T12:37:28.851Z,25.80
2022-08-19T12:39:55.598Z,25.73
2022-08-19T12:42:23.624Z,25.54
2022-08-19T12:44:50.395Z,25.16
2022-08-19T12:47:18.061Z,25.01
2022-08-19T12:49:54.514Z,24.87
2022-08-19T12:52:23.978Z,24.88
2022-08-19T12:54:53.893Z,24.98
2022-08-19T12:57:31.848Z,25.10
2022-08-19T13:00:01.718Z,24.94
2022-08-19T13:02:33.089Z,24.88
2022-08-19T13:05:07.809Z,24.85
2022-08-19T13:07:34.401Z,24.89
2022-08-19T13:10:01.107Z,25.02
2022-08-19T13:12:27.752Z,25.15
2022-08-19T13:14:54.790Z,25.25
2022-08-19T13:17:21.636Z,25.51
2022-08-19T13:19:48.407Z,25.41
2022-08-19T13:22:15.260Z,25.84
2022-08-19T13:24:46.824Z,26.17
2022-08-19T13:27:13.878Z,26.28
2022-08-19T13:30:02.710Z,26.33
2022-08-19T13:32:53.913Z,26.13
2022-08-19T13:35:20.595Z,25.76
2022-08-19T13:37:47.197Z,25.66
2022-08-19T13:40:19.504Z,25.62
2022-08-19T13:47:06.642Z,25.46
2022-08-19T13:49:34.366Z,25.44
2022-08-19T13:52:03.779Z,25.45
2022-08-19T13:54:30.441Z,25.22
2022-08-19T13:56:57.217Z,25.18
2022-08-19T13:59:23.893Z,25.15
2022-08-19T14:01:50.967Z,25.21
2022-08-19T14:04:17.599Z,25.28
2022-08-19T14:06:44.244Z,25.22
2022-08-19T14:09:10.937Z,25.13
2022-08-19T14:11:38.328Z,25.04
2022-08-19T14:14:07.366Z,25.19
2022-08-19T14:16:34.526Z,25.33
2022-08-19T14:19:01.146Z,25.45
2022-08-19T14:21:27.817Z,25.15
2022-08-19T14:23:54.925Z,25.11
2022-08-19T14:26:22.470Z,25.34
2022-08-19T14:28:49.183Z,25.51
2022-08-19T14:31:19.861Z,25.45
2022-08-19T14:33:48.146Z,25.46
2022-08-19T14:36:14.953Z,25.43
2022-08-19T14:38:42.996Z,25.34
2022-08-19T14:41:20.327Z,25.25
2022-08-19T14:43:49.681Z,25.19
2022-08-19T14:46:20.456Z,25.19
2022-08-19T14:48:47.526Z,25.19
2022-08-19T14:51:20.057Z,24.90
2022-08-19T14:53:49.326Z,24.95
2022-08-19T14:56:19.843Z,24.89
2022-08-19T14:58:46.912Z,24.79
2022-08-19T15:01:14.525Z,24.70
2022-08-19T15:03:42.140Z,24.60
2022-08-19T15:06:09.139Z,24.56
2022-08-19T15:08:42.004Z,24.57
2022-08-19T15:11:15.897Z,24.53
2022-08-19T15:13:43.616Z,24.53
2022-08-19T15:16:18.219Z,24.52
2022-08-19T15:18:46.042Z,24.54
2022-08-19T15:21:14.555Z,24.57
2022-08-19T15:23:41.848Z,24.53
2022-08-19T15:26:14.421Z,24.49
2022-08-19T15:28:43.362Z,24.33
2022-08-19T15:31:18.946Z,24.26
2022-08-19T15:33:58.517Z,24.15
2022-08-19T15:36:26.266Z,23.97
2022-08-19T15:38:53.400Z,23.91
2022-08-19T15:41:23.916Z,23.80
2022-08-19T15:43:54.101Z,23.78
2022-08-19T15:46:23.749Z,23.70
2022-08-19T15:48:57.231Z,23.56
2022-08-19T15:51:30.243Z,23.41
2022-08-19T15:53:59.648Z,23.40
2022-08-19T15:56:27.486Z,23.40
2022-08-19T15:59:12.943Z,23.38
2022-08-19T16:01:58.500Z,23.30
2022-08-19T16:04:44.036Z,23.26
2022-08-19T16:07:12.696Z,23.18
2022-08-19T16:09:39.456Z,23.08
2022-08-19T16:12:06.293Z,23.03
2022-08-19T16:14:35.243Z,22.97
2022-08-19T16:17:02.000Z,22.96
2022-08-19T16:19:28.662Z,22.92
2022-08-19T16:21:56.382Z,22.89
2022-08-19T16:24:26.565Z,22.72
2022-08-19T16:26:54.567Z,22.74
2022-08-19T16:29:34.074Z,22.76
2022-08-19T16:32:07.904Z,22.86
2022-08-19T16:34:34.576Z,22.82
2022-08-19T16:37:01.591Z,22.85
2022-08-19T16:39:28.312Z,22.74
2022-08-19T16:41:54.993Z,22.69
2022-08-19T16:44:22.031Z,22.63
2022-08-19T16:46:52.607Z,22.64
2022-08-19T16:49:55.290Z,22.60
2022-08-19T16:52:14.883Z,22.56
2022-08-19T16:54:43.554Z,22.49
2022-08-19T16:57:11.973Z,22.51
2022-08-19T16:59:43.760Z,22.34
2022-08-19T17:02:17.967Z,22.27
2022-08-19T17:04:44.668Z,22.18
2022-08-19T17:07:24.500Z,22.12
2022-08-19T17:09:51.506Z,22.16
2022-08-19T17:12:18.206Z,22.19
2022-08-19T17:14:48.106Z,22.10
2022-08-19T17:17:15.367Z,22.06
2022-08-19T17:19:44.654Z,22.08
2022-08-19T17:22:13.004Z,22.05
2022-08-19T17:24:40.618Z,22.16
2022-08-19T17:27:07.488Z,22.24
2022-08-19T17:29:34.345Z,22.24
2022-08-19T17:32:01.903Z,22.16
2022-08-19T17:34:28.554Z,22.15
2022-08-19T17:36:56.951Z,22.07
2022-08-19T17:39:25.212Z,22.06
2022-08-19T17:41:51.890Z,21.98
2022-08-19T17:44:18.902Z,21.90
2022-08-19T17:46:46.641Z,21.85
2022-08-19T17:49:13.437Z,21.80
2022-08-19T17:51:46.234Z,21.74
2022-08-19T17:54:16.252Z,21.72
2022-08-19T17:56:43.703Z,21.72
2022-08-19T17:59:13.783Z,21.68
2022-08-19T18:01:52.674Z,21.55
2022-08-19T18:04:22.965Z,21.54
2022-08-19T18:06:53.261Z,21.49
2022-08-19T18:09:38.728Z,21.43
2022-08-19T18:12:11.864Z,21.31
2022-08-19T18:14:39.402Z,21.32
2022-08-19T18:17:11.301Z,21.24
2022-08-19T18:19:41.174Z,21.24
2022-08-19T18:22:13.688Z,21.22
2022-08-19T18:24:46.007Z,21.22
2022-08-19T18:27:12.805Z,21.21
2022-08-19T18:29:40.236Z,21.14
2022-08-19T18:32:13.557Z,21.18
2022-08-19T18:34:41.497Z,21.14
2022-08-19T18:37:08.297Z,21.19
2022-08-19T18:40:44.746Z,21.20
2022-08-19T18:43:11.588Z,21.18
2022-08-19T18:46:00.122Z,21.14
2022-08-19T18:48:45.949Z,21.13
2022-08-19T18:51:12.876Z,21.10
2022-08-19T18:53:41.337Z,21.09
2022-08-19T18:56:11.932Z,21.12
2022-08-19T18:58:39.136Z,21.08
2022-08-19T19:01:11.430Z,21.08
2022-08-19T19:03:45.505Z,21.00
2022-08-19T19:06:19.549Z,20.99
2022-08-19T19:08:47.434Z,21.03
2022-08-19T19:11:17.680Z,20.99
2022-08-19T19:13:47.093Z,20.99
2022-08-19T19:16:13.775Z,20.97
2022-08-19T19:18:40.383Z,20.97
2022-08-19T19:21:08.564Z,21.01
2022-08-19T19:23:40.620Z,21.03
2022-08-19T19:26:10.469Z,21.03
2022-08-19T19:28:43.478Z,21.03
2022-08-19T19:31:14.241Z,21.02
2022-08-19T19:33:41.911Z,21.06
2022-08-19T19:36:08.793Z,21.03
2022-08-19T19:38:36.005Z,21.01
2022-08-19T19:41:02.974Z,21.02
2022-08-19T19:43:29.823Z,21.00
2022-08-19T19:46:05.853Z,20.99
2022-08-19T19:48:35.468Z,21.06
2022-08-19T19:51:03.633Z,21.00
2022-08-19T19:53:32.787Z,21.01
2022-08-19T19:55:59.374Z,20.95
2022-08-19T19:58:28.772Z,20.95
2022-08-19T20:00:57.620Z,20.93
2022-08-19T20:03:27.567Z,20.95
2022-08-19T20:06:01.480Z,20.88
2022-08-19T20:08:47.219Z,20.83
2022-08-19T20:11:31.203Z,20.82
2022-08-19T20:14:00.322Z,20.89
2022-08-19T20:16:32.188Z,20.82
2022-08-19T20:19:00.272Z,20.78
2022-08-19T20:21:32.067Z,20.77
2022-08-19T20:24:09.127Z,20.79
2022-08-19T20:26:37.016Z,20.79
2022-08-19T20:29:13.531Z,20.79
2022-08-19T20:31:59.025Z,20.74
2022-08-19T20:34:26.398Z,20.74
2022-08-19T20:36:53.111Z,20.71
2022-08-19T20:39:19.797Z,20.72
2022-08-19T20:41:46.616Z,20.70
2022-08-19T20:44:18.543Z,20.66
2022-08-19T20:46:54.495Z,20.64
2022-08-19T20:49:22.764Z,20.62
2022-08-19T20:51:54.671Z,20.61
2022-08-19T20:54:24.394Z,20.61
2022-08-19T20:56:54.041Z,20.59
2022-08-19T20:59:23.891Z,20.59
2022-08-19T21:01:53.385Z,20.60
2022-08-19T21:04:21.446Z,20.60
2022-08-19T21:06:49.649Z,20.56
2022-08-19T21:09:17.178Z,20.51
2022-08-19T21:11:44.135Z,20.47
2022-08-19T21:14:10.811Z,20.47
2022-08-19T21:16:38.898Z,20.44
2022-08-19T21:19:05.751Z,20.35
2022-08-19T21:21:35.467Z,20.35
2022-08-19T21:24:02.257Z,20.30
2022-08-19T21:26:29.166Z,20.24
2022-08-19T21:28:55.862Z,20.19
2022-08-19T21:31:22.833Z,20.17
2022-08-19T21:33:49.469Z,20.15
2022-08-19T21:36:18.440Z,20.15
2022-08-19T21:38:47.294Z,20.15
2022-08-19T21:41:13.890Z,20.13
2022-08-19T21:43:40.553Z,20.15
2022-08-19T21:46:07.546Z,20.11
2022-08-19T21:48:35.118Z,20.15
2022-08-19T21:51:01.921Z,20.16
2022-08-19T21:53:34.202Z,20.12
2022-08-19T21:56:04.629Z,20.12
2022-08-19T21:58:31.232Z,20.13
2022-08-19T22:01:05.837Z,20.14
2022-08-19T22:03:37.549Z,20.21
2022-08-19T22:06:04.719Z,20.18
2022-08-19T22:08:31.606Z,20.18
2022-08-19T22:11:00.449Z,20.20
2022-08-19T22:13:30.126Z,20.22
2022-08-19T22:15:57.371Z,20.22
2022-08-19T22:18:24.301Z,20.27
2022-08-19T22:20:54.693Z,20.26
2022-08-19T22:23:21.308Z,20.28
2022-08-19T22:25:51.049Z,20.25
2022-08-19T22:28:28.019Z,20.23
2022-08-19T22:30:56.395Z,20.22
2022-08-19T22:33:29.317Z,20.21
2022-08-19T22:35:56.401Z,20.21
2022-08-19T22:38:24.830Z,20.23
2022-08-19T22:40:53.550Z,20.24
2022-08-19T22:43:27.498Z,20.27
2022-08-19T22:45:54.943Z,20.25
2022-08-19T22:48:24.674Z,20.26
2022-08-19T22:51:11.069Z,20.25
2022-08-19T22:53:40.488Z,20.25
2022-08-19T22:56:13.055Z,20.23
2022-08-19T22:58:42.376Z,20.22
2022-08-19T23:01:11.614Z,20.22
2022-08-19T23:03:56.323Z,20.18
2022-08-19T23:06:23.157Z,20.15
2022-08-19T23:08:57.843Z,20.17
2022-08-19T23:11:24.816Z,20.14
2022-08-19T23:13:51.734Z,20.14
2022-08-19T23:16:18.345Z,20.16
2022-08-19T23:18:45.473Z,20.16
2022-08-19T23:21:12.206Z,20.18
2022-08-19T23:23:39.225Z,20.17
2022-08-19T23:26:06.108Z,20.16
2022-08-19T23:28:57.095Z,20.13
2022-08-19T23:31:26.189Z,20.16
2022-08-19T23:33:53.455Z,20.12
2022-08-19T23:36:20.671Z,20.09
2022-08-19T23:38:52.214Z,20.09
2022-08-19T23:41:21.359Z,20.07
2022-08-19T23:43:48.246Z,20.04
2022-08-19T23:46:27.675Z,20.02
2022-08-19T23:48:56.029Z,20.02
2022-08-19T23:51:22.689Z,20.03
2022-08-19T23:53:49.334Z,20.03
2022-08-19T23:56:16.690Z,20.04
2022-08-19T23:58:43.314Z,20.11
